KSJC/SJC METAR and TAF weather

Enter ICAO airport designator
Station Type Date Time Source
KSJC METAR 2022/01/18 06:53 UTC NOAA

KSJC 180653Z 00000KT 8SM BKN110 11/07 A3007 RMK AO2 SLP182 T01110067


Station Type Date Time Source
KSJC Decoded METAR 2022/01/18 06:53 UTC NOAA

SAN JOSE INTERNATIONAL AIRPORT, CA, United States (KSJC) 37-22N 121-55W 25M
Jan 18, 2022 - 01:53 AM EST / 2022.01.18 0653 UTC
Wind: Calm:0
Visibility: 8 mile(s):0
Sky conditions: mostly cloudy
Temperature: 52.0 F (11.1 C)
Dew Point: 44.1 F (6.7 C)
Relative Humidity: 74%
Pressure (altimeter): 30.07 in. Hg (1018 hPa)
ob: KSJC 180653Z 00000KT 8SM BKN110 11/07 A3007 RMK AO2 SLP182 T01110067
cycle: 7

Station Type Date Time Source
KSJC TAF 2022/01/18 06:42 UTC NOAA

TAF KSJC 180540Z 1806/1906 00000KT P6SM BKN100
FM181500 VRB03KT P6SM SCT010 SCT200
FM182100 30005KT P6SM FEW100 FEW200
FM190300 VRB03KT P6SM FEW200

Example: see airport list